sensor_id;sensor_type;location;lat;lon;timestamp;P1;durP1;ratioP1;P2;durP2;ratioP2
45232;SDS011;30969;51.052;17.056;2023-04-15T00:02:18;20.65;;;15.45;;
45232;SDS011;30969;51.052;17.056;2023-04-15T00:07:22;15.05;;;11.85;;
45232;SDS011;30969;51.052;17.056;2023-04-15T00:12:27;17.70;;;10.55;;
45232;SDS011;30969;51.052;17.056;2023-04-15T00:17:31;12.38;;;9.98;;
45232;SDS011;30969;51.052;17.056;2023-04-15T00:22:34;14.32;;;9.32;;
45232;SDS011;30969;51.052;17.056;2023-04-15T00:27:39;16.98;;;10.15;;
45232;SDS011;30969;51.052;17.056;2023-04-15T00:32:42;12.13;;;9.07;;
45232;SDS011;30969;51.052;17.056;2023-04-15T00:37:46;13.75;;;10.38;;
45232;SDS011;30969;51.052;17.056;2023-04-15T00:42:51;12.85;;;10.00;;
45232;SDS011;30969;51.052;17.056;2023-04-15T00:47:54;12.88;;;9.65;;
45232;SDS011;30969;51.052;17.056;2023-04-15T00:52:58;14.07;;;11.02;;
45232;SDS011;30969;51.052;17.056;2023-04-15T00:58:03;13.18;;;9.88;;
45232;SDS011;30969;51.052;17.056;2023-04-15T01:03:07;15.15;;;9.68;;
45232;SDS011;30969;51.052;17.056;2023-04-15T01:08:11;14.50;;;9.40;;
45232;SDS011;30969;51.052;17.056;2023-04-15T01:13:16;14.68;;;10.32;;
45232;SDS011;30969;51.052;17.056;2023-04-15T01:18:19;14.43;;;9.43;;
45232;SDS011;30969;51.052;17.056;2023-04-15T01:23:24;12.30;;;9.60;;
45232;SDS011;30969;51.052;17.056;2023-04-15T01:28:29;13.65;;;10.05;;
45232;SDS011;30969;51.052;17.056;2023-04-15T01:33:33;15.63;;;10.27;;
45232;SDS011;30969;51.052;17.056;2023-04-15T01:38:37;16.17;;;9.63;;
45232;SDS011;30969;51.052;17.056;2023-04-15T01:43:42;14.98;;;10.15;;
45232;SDS011;30969;51.052;17.056;2023-04-15T01:48:45;12.32;;;9.38;;
45232;SDS011;30969;51.052;17.056;2023-04-15T01:53:49;19.40;;;11.05;;
45232;SDS011;30969;51.052;17.056;2023-04-15T01:58:54;16.17;;;9.48;;
45232;SDS011;30969;51.052;17.056;2023-04-15T02:03:57;13.27;;;9.63;;
45232;SDS011;30969;51.052;17.056;2023-04-15T02:09:02;14.75;;;11.70;;
45232;SDS011;30969;51.052;17.056;2023-04-15T02:14:07;20.55;;;14.65;;
45232;SDS011;30969;51.052;17.056;2023-04-15T02:19:10;19.42;;;13.73;;
45232;SDS011;30969;51.052;17.056;2023-04-15T02:24:14;19.63;;;14.05;;
45232;SDS011;30969;51.052;17.056;2023-04-15T02:29:19;21.33;;;13.52;;
45232;SDS011;30969;51.052;17.056;2023-04-15T02:34:23;20.77;;;12.90;;
45232;SDS011;30969;51.052;17.056;2023-04-15T02:39:28;20.13;;;13.55;;
45232;SDS011;30969;51.052;17.056;2023-04-15T02:44:32;15.02;;;11.55;;
45232;SDS011;30969;51.052;17.056;2023-04-15T02:49:37;19.25;;;12.23;;
45232;SDS011;30969;51.052;17.056;2023-04-15T02:54:41;15.48;;;11.43;;
45232;SDS011;30969;51.052;17.056;2023-04-15T02:59:46;16.55;;;11.52;;
45232;SDS011;30969;51.052;17.056;2023-04-15T03:04:50;16.95;;;12.43;;
45232;SDS011;30969;51.052;17.056;2023-04-15T03:09:53;17.75;;;12.65;;
45232;SDS011;30969;51.052;17.056;2023-04-15T03:14:58;17.30;;;12.45;;
45232;SDS011;30969;51.052;17.056;2023-04-15T03:20:03;17.65;;;12.52;;
45232;SDS011;30969;51.052;17.056;2023-04-15T03:25:08;18.52;;;12.48;;
45232;SDS011;30969;51.052;17.056;2023-04-15T03:30:13;20.63;;;13.43;;
45232;SDS011;30969;51.052;17.056;2023-04-15T03:35:17;18.17;;;12.63;;
45232;SDS011;30969;51.052;17.056;2023-04-15T03:40:20;18.13;;;12.30;;
45232;SDS011;30969;51.052;17.056;2023-04-15T03:45:25;18.77;;;12.20;;
45232;SDS011;30969;51.052;17.056;2023-04-15T03:50:28;15.05;;;10.18;;
45232;SDS011;30969;51.052;17.056;2023-04-15T03:55:32;15.25;;;10.35;;
45232;SDS011;30969;51.052;17.056;2023-04-15T04:00:37;12.77;;;9.07;;
45232;SDS011;30969;51.052;17.056;2023-04-15T04:05:42;13.85;;;9.30;;
45232;SDS011;30969;51.052;17.056;2023-04-15T04:10:46;10.45;;;7.90;;
45232;SDS011;30969;51.052;17.056;2023-04-15T04:15:50;9.80;;;6.53;;
45232;SDS011;30969;51.052;17.056;2023-04-15T04:20:54;5.13;;;4.00;;
45232;SDS011;30969;51.052;17.056;2023-04-15T04:25:57;4.55;;;3.33;;
45232;SDS011;30969;51.052;17.056;2023-04-15T04:31:03;10.98;;;6.47;;
45232;SDS011;30969;51.052;17.056;2023-04-15T04:36:07;14.13;;;9.65;;
45232;SDS011;30969;51.052;17.056;2023-04-15T04:41:11;9.38;;;6.97;;
45232;SDS011;30969;51.052;17.056;2023-04-15T04:46:16;11.48;;;7.00;;
45232;SDS011;30969;51.052;17.056;2023-04-15T04:51:19;14.82;;;8.30;;
45232;SDS011;30969;51.052;17.056;2023-04-15T04:56:23;10.38;;;6.63;;
45232;SDS011;30969;51.052;17.056;2023-04-15T05:01:28;10.27;;;6.65;;
45232;SDS011;30969;51.052;17.056;2023-04-15T05:06:31;5.70;;;3.53;;
45232;SDS011;30969;51.052;17.056;2023-04-15T05:11:37;3.17;;;2.17;;
45232;SDS011;30969;51.052;17.056;2023-04-15T05:16:42;2.42;;;1.60;;
45232;SDS011;30969;51.052;17.056;2023-04-15T05:21:46;3.17;;;2.03;;
45232;SDS011;30969;51.052;17.056;2023-04-15T05:26:49;5.53;;;2.80;;
45232;SDS011;30969;51.052;17.056;2023-04-15T05:31:54;7.32;;;2.90;;
45232;SDS011;30969;51.052;17.056;2023-04-15T05:36:57;6.28;;;2.63;;
45232;SDS011;30969;51.052;17.056;2023-04-15T05:42:01;4.22;;;2.42;;
45232;SDS011;30969;51.052;17.056;2023-04-15T05:47:08;5.65;;;2.40;;
45232;SDS011;30969;51.052;17.056;2023-04-15T05:52:11;1.92;;;1.38;;
45232;SDS011;30969;51.052;17.056;2023-04-15T05:57:15;2.13;;;1.40;;
45232;SDS011;30969;51.052;17.056;2023-04-15T06:02:20;1.08;;;0.90;;
45232;SDS011;30969;51.052;17.056;2023-04-15T06:07:24;2.55;;;1.50;;
45232;SDS011;30969;51.052;17.056;2023-04-15T06:12:27;2.35;;;1.52;;
45232;SDS011;30969;51.052;17.056;2023-04-15T06:17:32;1.48;;;1.30;;
45232;SDS011;30969;51.052;17.056;2023-04-15T06:22:36;1.77;;;1.48;;
45232;SDS011;30969;51.052;17.056;2023-04-15T06:27:40;1.48;;;1.00;;
45232;SDS011;30969;51.052;17.056;2023-04-15T06:32:45;1.73;;;1.08;;
45232;SDS011;30969;51.052;17.056;2023-04-15T06:37:49;1.55;;;1.02;;
45232;SDS011;30969;51.052;17.056;2023-04-15T06:42:53;1.48;;;1.15;;
45232;SDS011;30969;51.052;17.056;2023-04-15T06:47:58;1.55;;;1.10;;
45232;SDS011;30969;51.052;17.056;2023-04-15T06:53:02;3.78;;;1.42;;
45232;SDS011;30969;51.052;17.056;2023-04-15T06:58:05;3.03;;;0.93;;
45232;SDS011;30969;51.052;17.056;2023-04-15T07:03:10;1.10;;;1.00;;
45232;SDS011;30969;51.052;17.056;2023-04-15T07:08:14;1.00;;;0.85;;
45232;SDS011;30969;51.052;17.056;2023-04-15T07:13:17;1.02;;;0.80;;
45232;SDS011;30969;51.052;17.056;2023-04-15T07:18:22;1.10;;;0.80;;
45232;SDS011;30969;51.052;17.056;2023-04-15T07:23:26;1.25;;;0.90;;
45232;SDS011;30969;51.052;17.056;2023-04-15T07:28:30;1.40;;;1.00;;
45232;SDS011;30969;51.052;17.056;2023-04-15T07:33:34;2.03;;;1.15;;
45232;SDS011;30969;51.052;17.056;2023-04-15T07:38:38;1.35;;;0.93;;
45232;SDS011;30969;51.052;17.056;2023-04-15T07:43:42;1.00;;;0.82;;
45232;SDS011;30969;51.052;17.056;2023-04-15T07:48:47;1.42;;;0.98;;
45232;SDS011;30969;51.052;17.056;2023-04-15T07:53:50;1.30;;;0.80;;
45232;SDS011;30969;51.052;17.056;2023-04-15T07:58:56;1.15;;;0.68;;
45232;SDS011;30969;51.052;17.056;2023-04-15T08:04:01;0.70;;;0.57;;
45232;SDS011;30969;51.052;17.056;2023-04-15T08:09:05;2.17;;;0.70;;
45232;SDS011;30969;51.052;17.056;2023-04-15T08:14:08;1.20;;;0.80;;
45232;SDS011;30969;51.052;17.056;2023-04-15T08:19:14;0.65;;;0.50;;
45232;SDS011;30969;51.052;17.056;2023-04-15T08:24:18;1.90;;;1.10;;
45232;SDS011;30969;51.052;17.056;2023-04-15T08:29:22;4.25;;;1.10;;
45232;SDS011;30969;51.052;17.056;2023-04-15T08:34:27;1.98;;;1.30;;
45232;SDS011;30969;51.052;17.056;2023-04-15T08:39:31;0.85;;;0.60;;
45232;SDS011;30969;51.052;17.056;2023-04-15T08:44:35;0.55;;;0.45;;
45232;SDS011;30969;51.052;17.056;2023-04-15T08:49:40;1.35;;;0.80;;
45232;SDS011;30969;51.052;17.056;2023-04-15T08:54:45;0.43;;;0.38;;
45232;SDS011;30969;51.052;17.056;2023-04-15T08:59:50;0.93;;;0.50;;
45232;SDS011;30969;51.052;17.056;2023-04-15T09:04:55;1.13;;;0.50;;
45232;SDS011;30969;51.052;17.056;2023-04-15T09:09:59;0.50;;;0.40;;
45232;SDS011;30969;51.052;17.056;2023-04-15T09:15:03;0.93;;;0.55;;
45232;SDS011;30969;51.052;17.056;2023-04-15T09:20:09;2.60;;;0.63;;
45232;SDS011;30969;51.052;17.056;2023-04-15T09:25:24;3.33;;;0.80;;
45232;SDS011;30969;51.052;17.056;2023-04-15T09:30:29;2.47;;;0.70;;
45232;SDS011;30969;51.052;17.056;2023-04-15T09:35:34;1.55;;;0.70;;
45232;SDS011;30969;51.052;17.056;2023-04-15T09:40:38;1.20;;;0.60;;
45232;SDS011;30969;51.052;17.056;2023-04-15T09:45:46;0.55;;;0.45;;
45232;SDS011;30969;51.052;17.056;2023-04-15T09:50:52;1.42;;;0.40;;
45232;SDS011;30969;51.052;17.056;2023-04-15T09:55:58;0.77;;;0.55;;
45232;SDS011;30969;51.052;17.056;2023-04-15T10:01:03;0.95;;;0.35;;
45232;SDS011;30969;51.052;17.056;2023-04-15T10:06:09;0.63;;;0.30;;
45232;SDS011;30969;51.052;17.056;2023-04-15T10:11:14;0.30;;;0.30;;
45232;SDS011;30969;51.052;17.056;2023-04-15T10:16:19;0.65;;;0.32;;
45232;SDS011;30969;51.052;17.056;2023-04-15T10:21:25;1.40;;;0.50;;
45232;SDS011;30969;51.052;17.056;2023-04-15T10:26:30;0.80;;;0.60;;
45232;SDS011;30969;51.052;17.056;2023-04-15T10:31:34;2.17;;;0.38;;
45232;SDS011;30969;51.052;17.056;2023-04-15T10:36:40;0.95;;;0.30;;
45232;SDS011;30969;51.052;17.056;2023-04-15T10:41:43;0.40;;;0.32;;
45232;SDS011;30969;51.052;17.056;2023-04-15T10:46:47;0.88;;;0.40;;
45232;SDS011;30969;51.052;17.056;2023-04-15T10:51:57;0.70;;;0.40;;
45232;SDS011;30969;51.052;17.056;2023-04-15T10:57:08;1.23;;;0.50;;
45232;SDS011;30969;51.052;17.056;2023-04-15T11:02:16;1.13;;;0.30;;
45232;SDS011;30969;51.052;17.056;2023-04-15T11:07:35;1.25;;;0.60;;
45232;SDS011;30969;51.052;17.056;2023-04-15T11:12:40;0.73;;;0.50;;
45232;SDS011;30969;51.052;17.056;2023-04-15T11:17:43;1.30;;;0.63;;
45232;SDS011;30969;51.052;17.056;2023-04-15T11:22:48;0.60;;;0.52;;
45232;SDS011;30969;51.052;17.056;2023-04-15T11:28:09;0.95;;;0.57;;
45232;SDS011;30969;51.052;17.056;2023-04-15T11:33:14;1.15;;;0.70;;
45232;SDS011;30969;51.052;17.056;2023-04-15T11:38:20;1.13;;;0.90;;
45232;SDS011;30969;51.052;17.056;2023-04-15T11:43:24;1.30;;;0.63;;
45232;SDS011;30969;51.052;17.056;2023-04-15T11:48:30;0.95;;;0.80;;
45232;SDS011;30969;51.052;17.056;2023-04-15T11:53:37;0.85;;;0.80;;
45232;SDS011;30969;51.052;17.056;2023-04-15T11:58:42;0.80;;;0.55;;
45232;SDS011;30969;51.052;17.056;2023-04-15T12:03:47;0.85;;;0.60;;
45232;SDS011;30969;51.052;17.056;2023-04-15T12:08:59;1.02;;;0.60;;
45232;SDS011;30969;51.052;17.056;2023-04-15T12:14:07;1.05;;;0.50;;
45232;SDS011;30969;51.052;17.056;2023-04-15T12:19:12;0.70;;;0.65;;
45232;SDS011;30969;51.052;17.056;2023-04-15T12:24:20;0.82;;;0.50;;
45232;SDS011;30969;51.052;17.056;2023-04-15T12:29:25;0.55;;;0.50;;
45232;SDS011;30969;51.052;17.056;2023-04-15T12:34:30;0.77;;;0.55;;
45232;SDS011;30969;51.052;17.056;2023-04-15T12:39:36;0.70;;;0.55;;
45232;SDS011;30969;51.052;17.056;2023-04-15T12:44:41;0.90;;;0.60;;
45232;SDS011;30969;51.052;17.056;2023-04-15T12:49:44;1.02;;;0.45;;
45232;SDS011;30969;51.052;17.056;2023-04-15T12:54:51;0.57;;;0.50;;
45232;SDS011;30969;51.052;17.056;2023-04-15T12:59:55;0.77;;;0.65;;
45232;SDS011;30969;51.052;17.056;2023-04-15T13:04:59;0.60;;;0.45;;
45232;SDS011;30969;51.052;17.056;2023-04-15T13:10:04;0.60;;;0.40;;
45232;SDS011;30969;51.052;17.056;2023-04-15T13:15:09;0.70;;;0.57;;
45232;SDS011;30969;51.052;17.056;2023-04-15T13:20:14;0.85;;;0.60;;
45232;SDS011;30969;51.052;17.056;2023-04-15T13:25:19;0.63;;;0.45;;
45232;SDS011;30969;51.052;17.056;2023-04-15T13:30:23;0.60;;;0.50;;
45232;SDS011;30969;51.052;17.056;2023-04-15T13:35:26;2.30;;;1.35;;
45232;SDS011;30969;51.052;17.056;2023-04-15T13:40:31;0.77;;;0.52;;
45232;SDS011;30969;51.052;17.056;2023-04-15T13:45:35;1.17;;;0.70;;
45232;SDS011;30969;51.052;17.056;2023-04-15T13:50:38;0.95;;;0.50;;
45232;SDS011;30969;51.052;17.056;2023-04-15T13:55:47;0.88;;;0.65;;
45232;SDS011;30969;51.052;17.056;2023-04-15T14:00:50;1.02;;;0.57;;
45232;SDS011;30969;51.052;17.056;2023-04-15T14:05:54;1.05;;;0.57;;
45232;SDS011;30969;51.052;17.056;2023-04-15T14:11:00;0.77;;;0.60;;
45232;SDS011;30969;51.052;17.056;2023-04-15T14:16:03;1.50;;;0.40;;
45232;SDS011;30969;51.052;17.056;2023-04-15T14:21:07;1.20;;;0.50;;
45232;SDS011;30969;51.052;17.056;2023-04-15T14:26:12;0.45;;;0.40;;
45232;SDS011;30969;51.052;17.056;2023-04-15T14:31:15;1.00;;;0.60;;
45232;SDS011;30969;51.052;17.056;2023-04-15T14:36:20;0.93;;;0.60;;
45232;SDS011;30969;51.052;17.056;2023-04-15T14:41:25;12.90;;;1.30;;
45232;SDS011;30969;51.052;17.056;2023-04-15T14:46:28;0.40;;;0.30;;
45232;SDS011;30969;51.052;17.056;2023-04-15T14:51:32;1.35;;;0.70;;
45232;SDS011;30969;51.052;17.056;2023-04-15T14:56:37;0.70;;;0.40;;
45232;SDS011;30969;51.052;17.056;2023-04-15T15:01:40;0.73;;;0.40;;
45232;SDS011;30969;51.052;17.056;2023-04-15T15:06:45;0.30;;;0.20;;
45232;SDS011;30969;51.052;17.056;2023-04-15T15:11:51;1.35;;;0.57;;
45232;SDS011;30969;51.052;17.056;2023-04-15T15:16:55;0.90;;;0.60;;
45232;SDS011;30969;51.052;17.056;2023-04-15T15:21:58;0.93;;;0.55;;
45232;SDS011;30969;51.052;17.056;2023-04-15T15:27:04;1.08;;;0.60;;
45232;SDS011;30969;51.052;17.056;2023-04-15T15:32:08;2.90;;;1.05;;
45232;SDS011;30969;51.052;17.056;2023-04-15T15:37:11;1.00;;;0.60;;
45232;SDS011;30969;51.052;17.056;2023-04-15T15:42:17;0.73;;;0.40;;
45232;SDS011;30969;51.052;17.056;2023-04-15T15:47:21;0.70;;;0.40;;
45232;SDS011;30969;51.052;17.056;2023-04-15T15:52:24;0.63;;;0.35;;
45232;SDS011;30969;51.052;17.056;2023-04-15T15:57:29;1.00;;;0.60;;
45232;SDS011;30969;51.052;17.056;2023-04-15T16:02:32;1.67;;;0.90;;
45232;SDS011;30969;51.052;17.056;2023-04-15T16:07:40;1.45;;;1.00;;
45232;SDS011;30969;51.052;17.056;2023-04-15T16:12:45;2.47;;;1.00;;
45232;SDS011;30969;51.052;17.056;2023-04-15T16:17:49;1.33;;;0.90;;
45232;SDS011;30969;51.052;17.056;2023-04-15T16:22:53;2.63;;;1.20;;
45232;SDS011;30969;51.052;17.056;2023-04-15T16:27:59;1.75;;;1.30;;
45232;SDS011;30969;51.052;17.056;2023-04-15T16:33:19;3.50;;;1.13;;
45232;SDS011;30969;51.052;17.056;2023-04-15T16:38:22;1.33;;;1.08;;
45232;SDS011;30969;51.052;17.056;2023-04-15T16:43:28;4.57;;;1.20;;
45232;SDS011;30969;51.052;17.056;2023-04-15T16:48:31;1.83;;;1.20;;
45232;SDS011;30969;51.052;17.056;2023-04-15T16:53:35;2.55;;;1.48;;
45232;SDS011;30969;51.052;17.056;2023-04-15T16:58:40;2.30;;;1.33;;
45232;SDS011;30969;51.052;17.056;2023-04-15T17:03:44;3.58;;;1.33;;
45232;SDS011;30969;51.052;17.056;2023-04-15T17:08:48;3.75;;;1.27;;
45232;SDS011;30969;51.052;17.056;2023-04-15T17:13:53;2.72;;;1.60;;
45232;SDS011;30969;51.052;17.056;2023-04-15T17:18:57;6.35;;;1.95;;
45232;SDS011;30969;51.052;17.056;2023-04-15T17:24:01;4.95;;;2.85;;
45232;SDS011;30969;51.052;17.056;2023-04-15T17:29:06;5.90;;;2.13;;
45232;SDS011;30969;51.052;17.056;2023-04-15T17:34:10;3.90;;;2.25;;
45232;SDS011;30969;51.052;17.056;2023-04-15T17:39:16;3.40;;;1.90;;
45232;SDS011;30969;51.052;17.056;2023-04-15T17:44:21;4.07;;;2.33;;
45232;SDS011;30969;51.052;17.056;2023-04-15T17:49:26;5.57;;;2.50;;
45232;SDS011;30969;51.052;17.056;2023-04-15T17:54:31;4.78;;;3.30;;
45232;SDS011;30969;51.052;17.056;2023-04-15T17:59:36;8.32;;;5.32;;
45232;SDS011;30969;51.052;17.056;2023-04-15T18:04:44;7.43;;;4.22;;
45232;SDS011;30969;51.052;17.056;2023-04-15T18:09:48;7.25;;;4.47;;
45232;SDS011;30969;51.052;17.056;2023-04-15T18:14:54;8.63;;;4.57;;
45232;SDS011;30969;51.052;17.056;2023-04-15T18:19:58;9.20;;;5.82;;
45232;SDS011;30969;51.052;17.056;2023-04-15T18:25:03;11.43;;;6.68;;
45232;SDS011;30969;51.052;17.056;2023-04-15T18:30:09;12.25;;;8.25;;
45232;SDS011;30969;51.052;17.056;2023-04-15T18:35:14;12.75;;;7.85;;
45232;SDS011;30969;51.052;17.056;2023-04-15T18:40:19;12.55;;;7.72;;
45232;SDS011;30969;51.052;17.056;2023-04-15T18:45:24;11.93;;;7.78;;
45232;SDS011;30969;51.052;17.056;2023-04-15T18:50:28;14.93;;;8.70;;
45232;SDS011;30969;51.052;17.056;2023-04-15T18:55:32;13.90;;;8.63;;
45232;SDS011;30969;51.052;17.056;2023-04-15T19:00:38;14.05;;;8.25;;
45232;SDS011;30969;51.052;17.056;2023-04-15T19:05:44;11.88;;;7.95;;
45232;SDS011;30969;51.052;17.056;2023-04-15T19:10:49;13.10;;;8.65;;
45232;SDS011;30969;51.052;17.056;2023-04-15T19:15:55;13.57;;;8.30;;
45232;SDS011;30969;51.052;17.056;2023-04-15T19:20:59;14.70;;;9.38;;
45232;SDS011;30969;51.052;17.056;2023-04-15T19:26:03;17.80;;;9.60;;
45232;SDS011;30969;51.052;17.056;2023-04-15T19:31:10;17.00;;;10.15;;
45232;SDS011;30969;51.052;17.056;2023-04-15T19:36:13;14.82;;;10.18;;
45232;SDS011;30969;51.052;17.056;2023-04-15T19:41:18;13.48;;;8.70;;
45232;SDS011;30969;51.052;17.056;2023-04-15T19:46:24;14.57;;;9.57;;
45232;SDS011;30969;51.052;17.056;2023-04-15T19:51:28;13.00;;;9.05;;
45232;SDS011;30969;51.052;17.056;2023-04-15T19:56:34;18.13;;;9.73;;
45232;SDS011;30969;51.052;17.056;2023-04-15T20:01:39;14.43;;;10.35;;
45232;SDS011;30969;51.052;17.056;2023-04-15T20:06:43;15.32;;;10.63;;
45232;SDS011;30969;51.052;17.056;2023-04-15T20:11:46;14.93;;;9.80;;
45232;SDS011;30969;51.052;17.056;2023-04-15T20:22:17;17.05;;;10.15;;
45232;SDS011;30969;51.052;17.056;2023-04-15T20:27:20;16.55;;;9.68;;
45232;SDS011;30969;51.052;17.056;2023-04-15T20:32:25;15.55;;;10.02;;
45232;SDS011;30969;51.052;17.056;2023-04-15T20:37:30;14.75;;;10.45;;
45232;SDS011;30969;51.052;17.056;2023-04-15T20:42:35;17.52;;;10.40;;
45232;SDS011;30969;51.052;17.056;2023-04-15T20:47:41;16.80;;;10.52;;
45232;SDS011;30969;51.052;17.056;2023-04-15T20:52:44;17.05;;;10.60;;
45232;SDS011;30969;51.052;17.056;2023-04-15T20:57:48;18.42;;;10.77;;
45232;SDS011;30969;51.052;17.056;2023-04-15T21:02:53;15.02;;;10.32;;
45232;SDS011;30969;51.052;17.056;2023-04-15T21:07:57;18.55;;;11.65;;
45232;SDS011;30969;51.052;17.056;2023-04-15T21:13:01;18.30;;;12.30;;
45232;SDS011;30969;51.052;17.056;2023-04-15T21:18:06;20.08;;;11.75;;
45232;SDS011;30969;51.052;17.056;2023-04-15T21:23:09;19.95;;;10.75;;
45232;SDS011;30969;51.052;17.056;2023-04-15T21:28:14;18.40;;;11.52;;
45232;SDS011;30969;51.052;17.056;2023-04-15T21:33:19;21.00;;;12.15;;
45232;SDS011;30969;51.052;17.056;2023-04-15T21:38:23;20.98;;;12.00;;
45232;SDS011;30969;51.052;17.056;2023-04-15T21:43:26;20.48;;;12.07;;
45232;SDS011;30969;51.052;17.056;2023-04-15T21:48:32;21.75;;;13.52;;
45232;SDS011;30969;51.052;17.056;2023-04-15T21:53:35;21.17;;;13.27;;
45232;SDS011;30969;51.052;17.056;2023-04-15T21:58:39;22.10;;;14.77;;
45232;SDS011;30969;51.052;17.056;2023-04-15T22:03:45;23.05;;;14.45;;
45232;SDS011;30969;51.052;17.056;2023-04-15T22:08:49;18.40;;;12.55;;
45232;SDS011;30969;51.052;17.056;2023-04-15T22:13:58;19.00;;;12.05;;
45232;SDS011;30969;51.052;17.056;2023-04-15T22:19:03;19.10;;;11.68;;
45232;SDS011;30969;51.052;17.056;2023-04-15T22:24:07;18.52;;;12.02;;
45232;SDS011;30969;51.052;17.056;2023-04-15T22:34:35;20.13;;;11.75;;
45232;SDS011;30969;51.052;17.056;2023-04-15T22:39:39;21.40;;;13.13;;
45232;SDS011;30969;51.052;17.056;2023-04-15T22:44:42;20.30;;;13.70;;
45232;SDS011;30969;51.052;17.056;2023-04-15T22:49:47;20.40;;;12.65;;
45232;SDS011;30969;51.052;17.056;2023-04-15T22:54:52;21.08;;;13.00;;
45232;SDS011;30969;51.052;17.056;2023-04-15T22:59:56;22.67;;;13.10;;
45232;SDS011;30969;51.052;17.056;2023-04-15T23:05:01;19.95;;;13.52;;
45232;SDS011;30969;51.052;17.056;2023-04-15T23:10:13;25.10;;;15.10;;
45232;SDS011;30969;51.052;17.056;2023-04-15T23:15:17;20.90;;;14.57;;
45232;SDS011;30969;51.052;17.056;2023-04-15T23:20:23;23.02;;;13.80;;
45232;SDS011;30969;51.052;17.056;2023-04-15T23:25:26;19.17;;;13.02;;
45232;SDS011;30969;51.052;17.056;2023-04-15T23:30:30;18.25;;;12.50;;
45232;SDS011;30969;51.052;17.056;2023-04-15T23:35:35;19.60;;;13.63;;
45232;SDS011;30969;51.052;17.056;2023-04-15T23:40:38;20.40;;;13.00;;
45232;SDS011;30969;51.052;17.056;2023-04-15T23:45:42;20.88;;;13.65;;
45232;SDS011;30969;51.052;17.056;2023-04-15T23:50:47;17.85;;;12.32;;
45232;SDS011;30969;51.052;17.056;2023-04-15T23:55:51;23.20;;;15.25;;
